sensor_id;sensor_type;location;lat;lon;timestamp;pressure;altitude;pressure_sealevel;temperature;humidity
71109;BME280;59614;51.012;-1.648;2022-07-01T00:00:49;100589.94;;;11.53;98.91
71109;BME280;59614;51.012;-1.648;2022-07-01T00:03:15;100594.44;;;11.48;98.98
71109;BME280;59614;51.012;-1.648;2022-07-01T00:05:40;100596.31;;;11.40;98.27
71109;BME280;59614;51.012;-1.648;2022-07-01T00:08:06;100596.31;;;11.40;98.83
71109;BME280;59614;51.012;-1.648;2022-07-01T00:10:32;100595.63;;;11.28;97.82
71109;BME280;59614;51.012;-1.648;2022-07-01T00:12:57;100590.50;;;11.19;97.85
71109;BME280;59614;51.012;-1.648;2022-07-01T00:15:23;100587.94;;;11.15;97.58
71109;BME280;59614;51.012;-1.648;2022-07-01T00:17:49;100592.38;;;11.14;97.72
71109;BME280;59614;51.012;-1.648;2022-07-01T00:20:14;100593.34;;;11.07;98.01
71109;BME280;59614;51.012;-1.648;2022-07-01T00:22:40;100593.53;;;10.94;97.80
71109;BME280;59614;51.012;-1.648;2022-07-01T00:25:07;100591.88;;;10.87;97.95
71109;BME280;59614;51.012;-1.648;2022-07-01T00:27:36;100585.69;;;10.90;98.58
71109;BME280;59614;51.012;-1.648;2022-07-01T00:30:01;100583.09;;;10.85;98.42
71109;BME280;59614;51.012;-1.648;2022-07-01T00:32:27;100589.38;;;10.76;98.60
71109;BME280;59614;51.012;-1.648;2022-07-01T00:34:52;100590.34;;;10.71;98.50
71109;BME280;59614;51.012;-1.648;2022-07-01T00:37:18;100593.97;;;10.63;98.35
71109;BME280;59614;51.012;-1.648;2022-07-01T00:39:43;100597.59;;;10.56;97.99
71109;BME280;59614;51.012;-1.648;2022-07-01T00:42:09;100598.47;;;10.57;98.50
71109;BME280;59614;51.012;-1.648;2022-07-01T00:44:34;100592.34;;;10.56;98.60
71109;BME280;59614;51.012;-1.648;2022-07-01T00:47:02;100598.53;;;10.52;98.75
71109;BME280;59614;51.012;-1.648;2022-07-01T00:49:28;100598.53;;;10.52;99.21
71109;BME280;59614;51.012;-1.648;2022-07-01T00:51:54;100606.50;;;10.47;99.14
71109;BME280;59614;51.012;-1.648;2022-07-01T00:54:20;100593.44;;;10.38;98.44
71109;BME280;59614;51.012;-1.648;2022-07-01T00:56:46;100600.47;;;10.36;98.91
71109;BME280;59614;51.012;-1.648;2022-07-01T00:59:13;100598.78;;;10.30;98.82
71109;BME280;59614;51.012;-1.648;2022-07-01T01:01:38;100593.59;;;10.24;98.57
71109;BME280;59614;51.012;-1.648;2022-07-01T01:04:04;100594.41;;;10.26;99.41
71109;BME280;59614;51.012;-1.648;2022-07-01T01:06:29;100603.22;;;10.25;99.10
71109;BME280;59614;51.012;-1.648;2022-07-01T01:08:55;100599.75;;;10.23;99.22
71109;BME280;59614;51.012;-1.648;2022-07-01T01:11:20;100591.91;;;10.17;98.71
71109;BME280;59614;51.012;-1.648;2022-07-01T01:13:46;100598.97;;;10.15;98.98
71109;BME280;59614;51.012;-1.648;2022-07-01T01:16:19;100594.53;;;10.17;99.04
71109;BME280;59614;51.012;-1.648;2022-07-01T01:18:45;100594.63;;;10.11;98.66
71109;BME280;59614;51.012;-1.648;2022-07-01T01:21:10;100602.59;;;10.06;98.62
71109;BME280;59614;51.012;-1.648;2022-07-01T01:23:36;100595.63;;;10.00;98.56
71109;BME280;59614;51.012;-1.648;2022-07-01T01:26:01;100601.84;;;9.93;98.98
71109;BME280;59614;51.012;-1.648;2022-07-01T01:28:27;100607.13;;;9.93;98.80
71109;BME280;59614;51.012;-1.648;2022-07-01T01:30:53;100601.91;;;9.87;98.81
71109;BME280;59614;51.012;-1.648;2022-07-01T01:33:18;100601.13;;;9.79;98.83
71109;BME280;59614;51.012;-1.648;2022-07-01T01:35:44;100601.16;;;9.74;98.96
71109;BME280;59614;51.012;-1.648;2022-07-01T01:38:09;100609.16;;;9.65;98.72
71109;BME280;59614;51.012;-1.648;2022-07-01T01:40:35;100614.53;;;9.55;98.66
71109;BME280;59614;51.012;-1.648;2022-07-01T01:43:00;100610.19;;;9.51;98.55
71109;BME280;59614;51.012;-1.648;2022-07-01T01:45:26;100617.16;;;9.55;99.07
71109;BME280;59614;51.012;-1.648;2022-07-01T01:47:52;100609.28;;;9.54;98.91
71109;BME280;59614;51.012;-1.648;2022-07-01T01:50:17;100612.84;;;9.45;98.96
71109;BME280;59614;51.012;-1.648;2022-07-01T01:52:45;100616.34;;;9.49;99.41
71109;BME280;59614;51.012;-1.648;2022-07-01T01:55:11;100619.91;;;9.41;98.93
71109;BME280;59614;51.012;-1.648;2022-07-01T01:57:36;100618.16;;;9.43;99.04
71109;BME280;59614;51.012;-1.648;2022-07-01T02:00:04;100620.81;;;9.37;98.88
71109;BME280;59614;51.012;-1.648;2022-07-01T02:02:29;100623.53;;;9.31;98.68
71109;BME280;59614;51.012;-1.648;2022-07-01T02:04:55;100623.56;;;9.25;98.24
71109;BME280;59614;51.012;-1.648;2022-07-01T02:07:20;100624.44;;;9.24;99.43
71109;BME280;59614;51.012;-1.648;2022-07-01T02:09:46;100623.59;;;9.22;99.22
71109;BME280;59614;51.012;-1.648;2022-07-01T02:12:11;100633.25;;;9.20;99.22
71109;BME280;59614;51.012;-1.648;2022-07-01T02:14:37;100625.34;;;9.23;99.12
71109;BME280;59614;51.012;-1.648;2022-07-01T02:17:03;100624.44;;;9.24;99.75
71109;BME280;59614;51.012;-1.648;2022-07-01T02:19:28;100623.59;;;9.22;99.25
71109;BME280;59614;51.012;-1.648;2022-07-01T02:21:54;100633.28;;;9.17;98.69
71109;BME280;59614;51.012;-1.648;2022-07-01T02:24:19;100635.97;;;9.07;98.52
71109;BME280;59614;51.012;-1.648;2022-07-01T02:26:45;100635.09;;;9.07;98.99
71109;BME280;59614;51.012;-1.648;2022-07-01T02:29:11;100641.25;;;9.07;99.05
71109;BME280;59614;51.012;-1.648;2022-07-01T02:31:36;100638.63;;;9.07;98.64
71109;BME280;59614;51.012;-1.648;2022-07-01T02:34:02;100631.56;;;9.14;99.44
71109;BME280;59614;51.012;-1.648;2022-07-01T02:36:27;100642.03;;;9.20;99.13
71109;BME280;59614;51.012;-1.648;2022-07-01T02:38:53;100636.75;;;9.23;98.78
71109;BME280;59614;51.012;-1.648;2022-07-01T02:41:18;100639.41;;;9.22;98.76
71109;BME280;59614;51.012;-1.648;2022-07-01T02:43:44;100641.19;;;9.17;98.04
71109;BME280;59614;51.012;-1.648;2022-07-01T02:46:09;100643.84;;;9.15;98.68
71109;BME280;59614;51.012;-1.648;2022-07-01T02:48:35;100643.81;;;9.17;98.46
71109;BME280;59614;51.012;-1.648;2022-07-01T02:51:00;100643.78;;;9.23;98.77
71109;BME280;59614;51.012;-1.648;2022-07-01T02:53:26;100647.28;;;9.20;98.48
71109;BME280;59614;51.012;-1.648;2022-07-01T02:55:51;100649.06;;;9.17;98.03
71109;BME280;59614;51.012;-1.648;2022-07-01T02:58:17;100642.06;;;9.12;98.48
71109;BME280;59614;51.012;-1.648;2022-07-01T03:00:42;100658.78;;;9.08;98.04
71109;BME280;59614;51.012;-1.648;2022-07-01T03:03:08;100662.31;;;9.10;98.79
71109;BME280;59614;51.012;-1.648;2022-07-01T03:05:33;100661.47;;;9.04;98.48
71109;BME280;59614;51.012;-1.648;2022-07-01T03:07:59;100666.72;;;9.05;98.42
71109;BME280;59614;51.012;-1.648;2022-07-01T03:10:24;100669.41;;;8.99;98.10
71109;BME280;59614;51.012;-1.648;2022-07-01T03:12:50;100663.22;;;9.05;98.59
71109;BME280;59614;51.012;-1.648;2022-07-01T03:15:15;100667.56;;;9.10;99.09
71109;BME280;59614;51.012;-1.648;2022-07-01T03:17:43;100678.09;;;9.09;98.66
71109;BME280;59614;51.012;-1.648;2022-07-01T03:20:10;100677.19;;;9.15;98.67
71109;BME280;59614;51.012;-1.648;2022-07-01T03:22:37;100671.09;;;9.03;98.10
71109;BME280;59614;51.012;-1.648;2022-07-01T03:25:03;100668.47;;;9.06;98.45
71109;BME280;59614;51.012;-1.648;2022-07-01T03:27:30;100667.56;;;9.07;98.49
71109;BME280;59614;51.012;-1.648;2022-07-01T03:29:56;100673.75;;;9.05;98.31
71109;BME280;59614;51.012;-1.648;2022-07-01T03:32:22;100667.59;;;9.01;98.51
71109;BME280;59614;51.012;-1.648;2022-07-01T03:34:49;100663.25;;;8.95;98.56
71109;BME280;59614;51.012;-1.648;2022-07-01T03:37:16;100657.13;;;8.93;98.60
71109;BME280;59614;51.012;-1.648;2022-07-01T03:39:42;100662.41;;;8.87;98.93
71109;BME280;59614;51.012;-1.648;2022-07-01T03:42:08;100665.91;;;8.91;98.95
71109;BME280;59614;51.012;-1.648;2022-07-01T03:44:35;100665.91;;;8.91;99.13
71109;BME280;59614;51.012;-1.648;2022-07-01T03:47:01;100664.19;;;8.84;98.49
71109;BME280;59614;51.012;-1.648;2022-07-01T03:49:28;100674.72;;;8.87;99.34
71109;BME280;59614;51.012;-1.648;2022-07-01T03:51:53;100679.09;;;8.89;98.67
71109;BME280;59614;51.012;-1.648;2022-07-01T03:54:19;100681.75;;;8.88;98.63
71109;BME280;59614;51.012;-1.648;2022-07-01T03:57:04;100680.03;;;8.74;98.21
71109;BME280;59614;51.012;-1.648;2022-07-01T03:59:37;100676.50;;;8.77;98.38
71109;BME280;59614;51.012;-1.648;2022-07-01T04:02:04;100676.50;;;8.78;98.03
71109;BME280;59614;51.012;-1.648;2022-07-01T04:04:30;100678.28;;;8.73;98.29
71109;BME280;59614;51.012;-1.648;2022-07-01T04:06:57;100680.06;;;8.68;97.78
71109;BME280;59614;51.012;-1.648;2022-07-01T04:09:24;100680.94;;;8.73;97.95
71109;BME280;59614;51.012;-1.648;2022-07-01T04:11:50;100676.53;;;8.72;98.06
71109;BME280;59614;51.012;-1.648;2022-07-01T04:14:16;100680.91;;;8.75;98.10
71109;BME280;59614;51.012;-1.648;2022-07-01T04:16:43;100680.94;;;8.70;97.95
71109;BME280;59614;51.012;-1.648;2022-07-01T04:19:09;100690.56;;;8.71;98.09
71109;BME280;59614;51.012;-1.648;2022-07-01T04:21:35;100690.59;;;8.68;98.50
71109;BME280;59614;51.012;-1.648;2022-07-01T04:24:21;100686.19;;;8.70;97.95
71109;BME280;59614;51.012;-1.648;2022-07-01T04:26:50;100697.59;;;8.69;98.21
71109;BME280;59614;51.012;-1.648;2022-07-01T04:29:15;100701.09;;;8.68;98.30
71109;BME280;59614;51.012;-1.648;2022-07-01T04:31:41;100700.19;;;8.77;98.62
71109;BME280;59614;51.012;-1.648;2022-07-01T04:34:08;100708.06;;;8.78;98.16
71109;BME280;59614;51.012;-1.648;2022-07-01T04:36:35;100707.16;;;8.87;98.39
71109;BME280;59614;51.012;-1.648;2022-07-01T04:39:02;100709.78;;;8.93;97.91
71109;BME280;59614;51.012;-1.648;2022-07-01T04:41:28;100714.09;;;9.07;98.59
71109;BME280;59614;51.012;-1.648;2022-07-01T04:44:12;100710.53;;;9.17;98.42
71109;BME280;59614;51.012;-1.648;2022-07-01T04:46:37;100712.22;;;9.27;98.21
71109;BME280;59614;51.012;-1.648;2022-07-01T04:49:03;100721.84;;;9.33;98.04
71109;BME280;59614;51.012;-1.648;2022-07-01T04:51:29;100716.53;;;9.36;96.84
71109;BME280;59614;51.012;-1.648;2022-07-01T04:53:54;100708.56;;;9.49;97.13
71109;BME280;59614;51.012;-1.648;2022-07-01T04:56:20;100703.16;;;9.63;97.32
71109;BME280;59614;51.012;-1.648;2022-07-01T04:58:46;100706.63;;;9.72;96.82
71109;BME280;59614;51.012;-1.648;2022-07-01T05:01:12;100707.50;;;9.71;96.42
71109;BME280;59614;51.012;-1.648;2022-07-01T05:03:38;100707.41;;;9.81;96.35
71109;BME280;59614;51.012;-1.648;2022-07-01T05:06:04;100715.16;;;9.98;96.50
71109;BME280;59614;51.012;-1.648;2022-07-01T05:08:29;100709.06;;;9.94;94.70
71109;BME280;59614;51.012;-1.648;2022-07-01T05:10:55;100720.41;;;10.02;95.40
71109;BME280;59614;51.012;-1.648;2022-07-01T05:13:20;100715.94;;;10.11;95.83
71109;BME280;59614;51.012;-1.648;2022-07-01T05:15:46;100711.44;;;10.22;94.77
71109;BME280;59614;51.012;-1.648;2022-07-01T05:18:11;100711.38;;;10.30;95.05
71109;BME280;59614;51.012;-1.648;2022-07-01T05:20:55;100712.91;;;10.53;95.82
71109;BME280;59614;51.012;-1.648;2022-07-01T05:23:39;100714.50;;;10.64;94.97
71109;BME280;59614;51.012;-1.648;2022-07-01T05:26:04;100720.38;;;10.88;95.23
71109;BME280;59614;51.012;-1.648;2022-07-01T05:28:30;100711.47;;;10.95;93.67
71109;BME280;59614;51.012;-1.648;2022-07-01T05:30:55;100712.09;;;11.15;92.82
71109;BME280;59614;51.012;-1.648;2022-07-01T05:33:21;100709.34;;;11.21;92.48
71109;BME280;59614;51.012;-1.648;2022-07-01T05:35:47;100719.75;;;11.33;93.32
71109;BME280;59614;51.012;-1.648;2022-07-01T05:38:13;100717.06;;;11.36;92.39
71109;BME280;59614;51.012;-1.648;2022-07-01T05:40:39;100725.09;;;11.28;92.38
71109;BME280;59614;51.012;-1.648;2022-07-01T05:43:04;100725.22;;;11.21;93.03
71109;BME280;59614;51.012;-1.648;2022-07-01T05:45:30;100726.22;;;11.12;92.46
71109;BME280;59614;51.012;-1.648;2022-07-01T05:47:55;100732.31;;;11.19;93.60
71109;BME280;59614;51.012;-1.648;2022-07-01T05:50:24;100727.94;;;11.15;92.51
71109;BME280;59614;51.012;-1.648;2022-07-01T05:52:50;100732.44;;;11.08;92.60
71109;BME280;59614;51.012;-1.648;2022-07-01T05:55:15;100730.50;;;11.21;94.25
71109;BME280;59614;51.012;-1.648;2022-07-01T05:57:41;100729.63;;;11.20;93.25
71109;BME280;59614;51.012;-1.648;2022-07-01T06:00:07;100728.16;;;11.01;92.17
71109;BME280;59614;51.012;-1.648;2022-07-01T06:02:34;100735.19;;;11.00;93.63
71109;BME280;59614;51.012;-1.648;2022-07-01T06:05:00;100729.88;;;11.03;93.84
71109;BME280;59614;51.012;-1.648;2022-07-01T06:07:25;100741.25;;;11.07;93.72
71109;BME280;59614;51.012;-1.648;2022-07-01T06:09:51;100731.50;;;11.10;92.88
71109;BME280;59614;51.012;-1.648;2022-07-01T06:12:16;100747.25;;;11.20;93.54
71109;BME280;59614;51.012;-1.648;2022-07-01T06:14:42;100739.44;;;11.10;93.62
71109;BME280;59614;51.012;-1.648;2022-07-01T06:17:08;100750.88;;;11.12;93.60
71109;BME280;59614;51.012;-1.648;2022-07-01T06:19:34;100739.41;;;11.13;92.75
71109;BME280;59614;51.012;-1.648;2022-07-01T06:22:00;100740.22;;;11.19;93.85
71109;BME280;59614;51.012;-1.648;2022-07-01T06:24:25;100741.75;;;11.35;94.86
71109;BME280;59614;51.012;-1.648;2022-07-01T06:26:51;100742.66;;;11.33;93.75
71109;BME280;59614;51.012;-1.648;2022-07-01T06:29:16;100751.44;;;11.35;93.16
71109;BME280;59614;51.012;-1.648;2022-07-01T06:31:42;100755.84;;;11.36;93.34
71109;BME280;59614;51.012;-1.648;2022-07-01T06:34:07;100760.25;;;11.37;92.90
71109;BME280;59614;51.012;-1.648;2022-07-01T06:36:33;100751.28;;;11.47;93.10
71109;BME280;59614;51.012;-1.648;2022-07-01T06:38:58;100750.16;;;11.61;93.24
71109;BME280;59614;51.012;-1.648;2022-07-01T06:41:23;100758.84;;;11.70;91.69
71109;BME280;59614;51.012;-1.648;2022-07-01T06:43:53;100762.06;;;11.88;91.05
71109;BME280;59614;51.012;-1.648;2022-07-01T06:46:22;100772.63;;;11.91;89.57
71109;BME280;59614;51.012;-1.648;2022-07-01T06:48:47;100769.53;;;12.19;90.12
71109;BME280;59614;51.012;-1.648;2022-07-01T06:51:13;100766.78;;;12.25;90.59
71109;BME280;59614;51.012;-1.648;2022-07-01T06:53:38;100772.78;;;12.35;89.76
71109;BME280;59614;51.012;-1.648;2022-07-01T06:56:04;100771.22;;;12.25;88.99
71109;BME280;59614;51.012;-1.648;2022-07-01T06:58:30;100767.34;;;12.43;89.21
71109;BME280;59614;51.012;-1.648;2022-07-01T07:00:55;100770.75;;;12.49;88.72
71109;BME280;59614;51.012;-1.648;2022-07-01T07:03:21;100777.50;;;12.66;87.56
71109;BME280;59614;51.012;-1.648;2022-07-01T07:05:47;100771.97;;;12.78;89.29
71109;BME280;59614;51.012;-1.648;2022-07-01T07:08:12;100773.63;;;12.84;88.34
71109;BME280;59614;51.012;-1.648;2022-07-01T07:10:38;100767.22;;;12.94;87.29
71109;BME280;59614;51.012;-1.648;2022-07-01T07:13:03;100766.38;;;12.94;86.20
71109;BME280;59614;51.012;-1.648;2022-07-01T07:15:29;100767.66;;;13.15;86.69
71109;BME280;59614;51.012;-1.648;2022-07-01T07:17:54;100775.41;;;13.26;87.18
71109;BME280;59614;51.012;-1.648;2022-07-01T07:20:23;100772.59;;;13.32;85.31
71109;BME280;59614;51.012;-1.648;2022-07-01T07:22:49;100770.19;;;13.62;85.49
71109;BME280;59614;51.012;-1.648;2022-07-01T07:25:14;100774.09;;;13.83;84.94
71109;BME280;59614;51.012;-1.648;2022-07-01T07:27:40;100774.44;;;14.05;83.48
71109;BME280;59614;51.012;-1.648;2022-07-01T07:30:05;100766.84;;;14.26;83.95
71109;BME280;59614;51.012;-1.648;2022-07-01T07:32:31;100768.16;;;14.43;82.68
71109;BME280;59614;51.012;-1.648;2022-07-01T07:34:56;100752.91;;;14.84;81.64
71109;BME280;59614;51.012;-1.648;2022-07-01T07:37:22;100755.06;;;15.01;79.41
71109;BME280;59614;51.012;-1.648;2022-07-01T07:39:47;100755.19;;;15.26;79.18
71109;BME280;59614;51.012;-1.648;2022-07-01T07:42:13;100755.34;;;15.50;81.46
71109;BME280;59614;51.012;-1.648;2022-07-01T07:44:38;100752.16;;;15.94;79.44
71109;BME280;59614;51.012;-1.648;2022-07-01T07:47:04;100749.72;;;16.89;76.47
71109;BME280;59614;51.012;-1.648;2022-07-01T07:49:29;100748.50;;;16.74;75.04
71109;BME280;59614;51.012;-1.648;2022-07-01T07:51:55;100755.31;;;16.58;76.06
71109;BME280;59614;51.012;-1.648;2022-07-01T07:54:21;100748.59;;;16.71;75.72
71109;BME280;59614;51.012;-1.648;2022-07-01T07:56:46;100757.19;;;17.27;75.65
71109;BME280;59614;51.012;-1.648;2022-07-01T07:59:12;100765.97;;;17.53;73.98
71109;BME280;59614;51.012;-1.648;2022-07-01T08:01:38;100768.44;;;17.11;75.17
71109;BME280;59614;51.012;-1.648;2022-07-01T08:04:03;100765.47;;;16.72;74.48
71109;BME280;59614;51.012;-1.648;2022-07-01T08:06:29;100773.94;;;16.58;75.73
71109;BME280;59614;51.012;-1.648;2022-07-01T08:08:54;100762.09;;;16.16;74.96
71109;BME280;59614;51.012;-1.648;2022-07-01T08:11:21;100762.31;;;16.35;76.07
71109;BME280;59614;51.012;-1.648;2022-07-01T08:13:46;100766.47;;;16.44;75.86
71109;BME280;59614;51.012;-1.648;2022-07-01T08:16:12;100769.47;;;16.83;74.34
71109;BME280;59614;51.012;-1.648;2022-07-01T08:18:38;100766.75;;;17.10;74.54
71109;BME280;59614;51.012;-1.648;2022-07-01T08:21:04;100774.88;;;17.06;71.58
71109;BME280;59614;51.012;-1.648;2022-07-01T08:23:29;100773.94;;;17.08;71.13
71109;BME280;59614;51.012;-1.648;2022-07-01T08:25:55;100772.28;;;17.04;71.26
71109;BME280;59614;51.012;-1.648;2022-07-01T08:28:20;100777.44;;;17.09;73.52
71109;BME280;59614;51.012;-1.648;2022-07-01T08:30:46;100775.66;;;17.33;73.15
71109;BME280;59614;51.012;-1.648;2022-07-01T08:33:12;100771.72;;;17.20;72.97
71109;BME280;59614;51.012;-1.648;2022-07-01T08:35:38;100772.75;;;17.16;71.83
71109;BME280;59614;51.012;-1.648;2022-07-01T08:38:04;100778.66;;;17.24;72.19
71109;BME280;59614;51.012;-1.648;2022-07-01T08:40:31;100776.44;;;17.35;74.57
71109;BME280;59614;51.012;-1.648;2022-07-01T08:43:02;100773.19;;;17.27;68.80
71109;BME280;59614;51.012;-1.648;2022-07-01T08:45:29;100778.34;;;17.32;71.25
71109;BME280;59614;51.012;-1.648;2022-07-01T08:47:56;100771.94;;;17.13;70.73
71109;BME280;59614;51.012;-1.648;2022-07-01T08:50:27;100771.09;;;17.35;70.98
71109;BME280;59614;51.012;-1.648;2022-07-01T08:52:53;100776.28;;;17.84;71.21
71109;BME280;59614;51.012;-1.648;2022-07-01T08:55:23;100775.22;;;18.52;66.09
71109;BME280;59614;51.012;-1.648;2022-07-01T08:57:49;100769.88;;;19.87;64.20
71109;BME280;59614;51.012;-1.648;2022-07-01T09:00:15;100773.84;;;20.33;61.77
71109;BME280;59614;51.012;-1.648;2022-07-01T09:02:57;100775.19;;;20.24;61.93
71109;BME280;59614;51.012;-1.648;2022-07-01T09:05:24;100774.06;;;20.11;61.54
71109;BME280;59614;51.012;-1.648;2022-07-01T09:08:02;100780.06;;;20.33;63.50
71109;BME280;59614;51.012;-1.648;2022-07-01T09:10:29;100778.66;;;20.26;61.23
71109;BME280;59614;51.012;-1.648;2022-07-01T09:12:57;100780.41;;;20.10;60.49
71109;BME280;59614;51.012;-1.648;2022-07-01T09:15:30;100774.63;;;19.44;62.56
71109;BME280;59614;51.012;-1.648;2022-07-01T09:18:16;100781.97;;;18.19;61.90
71109;BME280;59614;51.012;-1.648;2022-07-01T09:20:47;100788.16;;;17.99;67.37
71109;BME280;59614;51.012;-1.648;2022-07-01T09:23:18;100778.06;;;17.39;66.22
71109;BME280;59614;51.012;-1.648;2022-07-01T09:25:46;100779.91;;;17.15;68.61
71109;BME280;59614;51.012;-1.648;2022-07-01T09:28:21;100784.25;;;16.92;69.76
71109;BME280;59614;51.012;-1.648;2022-07-01T09:30:49;100785.44;;;17.09;69.15
71109;BME280;59614;51.012;-1.648;2022-07-01T09:35:41;100792.66;;;17.75;67.80
71109;BME280;59614;51.012;-1.648;2022-07-01T09:38:07;100784.31;;;17.84;60.69
71109;BME280;59614;51.012;-1.648;2022-07-01T09:40:51;100794.59;;;17.49;66.51
71109;BME280;59614;51.012;-1.648;2022-07-01T09:43:23;100793.22;;;16.66;69.11
71109;BME280;59614;51.012;-1.648;2022-07-01T09:46:09;100799.31;;;16.17;66.23
71109;BME280;59614;51.012;-1.648;2022-07-01T09:51:02;100800.97;;;15.95;69.38
71109;BME280;59614;51.012;-1.648;2022-07-01T09:53:28;100808.03;;;15.96;68.42
71109;BME280;59614;51.012;-1.648;2022-07-01T09:55:53;100812.03;;;16.09;69.98
71109;BME280;59614;51.012;-1.648;2022-07-01T09:58:20;100805.91;;;16.32;68.20
71109;BME280;59614;51.012;-1.648;2022-07-01T10:00:46;100815.31;;;16.95;69.03
71109;BME280;59614;51.012;-1.648;2022-07-01T10:03:12;100815.78;;;17.06;66.50
71109;BME280;59614;51.012;-1.648;2022-07-01T10:10:51;100807.13;;;17.47;63.53
71109;BME280;59614;51.012;-1.648;2022-07-01T10:13:25;100809.41;;;17.10;63.79
71109;BME280;59614;51.012;-1.648;2022-07-01T10:15:52;100813.13;;;16.81;61.29
71109;BME280;59614;51.012;-1.648;2022-07-01T10:18:28;100809.41;;;17.10;64.12
71109;BME280;59614;51.012;-1.648;2022-07-01T10:20:55;100811.00;;;17.14;63.76
71109;BME280;59614;51.012;-1.648;2022-07-01T10:23:23;100811.84;;;17.85;60.65
71109;BME280;59614;51.012;-1.648;2022-07-01T10:25:53;100813.16;;;18.81;62.67
71109;BME280;59614;51.012;-1.648;2022-07-01T10:31:06;100812.41;;;19.19;61.24
71109;BME280;59614;51.012;-1.648;2022-07-01T10:33:47;100801.38;;;19.06;58.01
71109;BME280;59614;51.012;-1.648;2022-07-01T10:36:19;100814.13;;;18.80;60.90
71109;BME280;59614;51.012;-1.648;2022-07-01T10:41:54;100810.22;;;18.87;59.28
71109;BME280;59614;51.012;-1.648;2022-07-01T10:44:22;100803.41;;;19.01;58.34
71109;BME280;59614;51.012;-1.648;2022-07-01T10:46:54;100810.94;;;19.11;58.75
71109;BME280;59614;51.012;-1.648;2022-07-01T10:52:04;100802.50;;;19.96;59.32
71109;BME280;59614;51.012;-1.648;2022-07-01T10:59:46;100812.78;;;18.49;60.89
71109;BME280;59614;51.012;-1.648;2022-07-01T11:02:17;100816.34;;;17.84;56.54
71109;BME280;59614;51.012;-1.648;2022-07-01T11:04:43;100824.34;;;18.06;59.46
71109;BME280;59614;51.012;-1.648;2022-07-01T11:07:09;100821.91;;;18.23;57.81
71109;BME280;59614;51.012;-1.648;2022-07-01T11:09:35;100812.59;;;18.74;57.23
71109;BME280;59614;51.012;-1.648;2022-07-01T11:12:02;100812.09;;;19.25;56.60
71109;BME280;59614;51.012;-1.648;2022-07-01T11:14:28;100813.19;;;19.59;55.13
71109;BME280;59614;51.012;-1.648;2022-07-01T11:16:54;100814.75;;;20.72;52.26
71109;BME280;59614;51.012;-1.648;2022-07-01T11:19:20;100807.34;;;21.10;53.43
71109;BME280;59614;51.012;-1.648;2022-07-01T11:21:53;100814.03;;;20.50;54.84
71109;BME280;59614;51.012;-1.648;2022-07-01T11:24:20;100813.13;;;19.22;54.34
71109;BME280;59614;51.012;-1.648;2022-07-01T11:26:46;100812.28;;;19.01;58.51
71109;BME280;59614;51.012;-1.648;2022-07-01T11:29:12;100827.75;;;18.94;58.08
71109;BME280;59614;51.012;-1.648;2022-07-01T11:31:39;100819.19;;;19.45;57.83
71109;BME280;59614;51.012;-1.648;2022-07-01T11:34:04;100820.94;;;19.46;55.66
71109;BME280;59614;51.012;-1.648;2022-07-01T11:36:31;100814.91;;;19.79;54.34
71109;BME280;59614;51.012;-1.648;2022-07-01T11:39:19;100816.28;;;19.69;56.09
71109;BME280;59614;51.012;-1.648;2022-07-01T11:41:56;100817.75;;;19.57;55.53
71109;BME280;59614;51.012;-1.648;2022-07-01T11:44:48;100819.63;;;19.17;54.18
71109;BME280;59614;51.012;-1.648;2022-07-01T11:47:23;100818.25;;;18.87;53.59
71109;BME280;59614;51.012;-1.648;2022-07-01T11:49:50;100823.75;;;18.63;54.54
71109;BME280;59614;51.012;-1.648;2022-07-01T11:52:17;100830.63;;;18.28;55.35
71109;BME280;59614;51.012;-1.648;2022-07-01T11:54:46;100829.78;;;18.05;56.86
71109;BME280;59614;51.012;-1.648;2022-07-01T11:59:39;100830.56;;;18.07;58.84
71109;BME280;59614;51.012;-1.648;2022-07-01T12:02:07;100822.09;;;17.96;56.74
71109;BME280;59614;51.012;-1.648;2022-07-01T12:04:33;100828.25;;;18.20;57.46
71109;BME280;59614;51.012;-1.648;2022-07-01T12:06:59;100823.97;;;19.57;51.75
71109;BME280;59614;51.012;-1.648;2022-07-01T12:09:26;100811.03;;;20.92;51.43
71109;BME280;59614;51.012;-1.648;2022-07-01T12:11:52;100808.25;;;19.69;51.64
71109;BME280;59614;51.012;-1.648;2022-07-01T12:14:25;100799.06;;;18.98;50.75
71109;BME280;59614;51.012;-1.648;2022-07-01T12:16:53;100809.69;;;18.58;52.59
71109;BME280;59614;51.012;-1.648;2022-07-01T12:19:19;100806.03;;;18.61;53.44
71109;BME280;59614;51.012;-1.648;2022-07-01T12:21:53;100808.41;;;20.90;49.46
71109;BME280;59614;51.012;-1.648;2022-07-01T12:24:20;100803.94;;;22.19;47.47
71109;BME280;59614;51.012;-1.648;2022-07-01T12:29:26;100797.66;;;22.79;45.67
71109;BME280;59614;51.012;-1.648;2022-07-01T12:32:01;100789.94;;;23.46;45.22
71109;BME280;59614;51.012;-1.648;2022-07-01T12:37:03;100796.47;;;24.11;40.22
71109;BME280;59614;51.012;-1.648;2022-07-01T12:39:28;100796.78;;;22.79;41.57
71109;BME280;59614;51.012;-1.648;2022-07-01T12:41:54;100799.50;;;20.90;45.68
71109;BME280;59614;51.012;-1.648;2022-07-01T12:44:28;100807.13;;;20.46;49.77
71109;BME280;59614;51.012;-1.648;2022-07-01T12:46:55;100807.47;;;20.91;49.68
71109;BME280;59614;51.012;-1.648;2022-07-01T12:49:24;100809.63;;;20.32;51.84
71109;BME280;59614;51.012;-1.648;2022-07-01T12:51:51;100803.09;;;21.22;49.54
71109;BME280;59614;51.012;-1.648;2022-07-01T12:54:34;100805.13;;;21.51;48.65
71109;BME280;59614;51.012;-1.648;2022-07-01T12:57:02;100812.19;;;21.20;50.95
71109;BME280;59614;51.012;-1.648;2022-07-01T12:59:27;100818.59;;;20.66;52.90
71109;BME280;59614;51.012;-1.648;2022-07-01T13:01:53;100828.28;;;19.79;50.89
71109;BME280;59614;51.012;-1.648;2022-07-01T13:04:27;100821.19;;;19.78;50.09
71109;BME280;59614;51.012;-1.648;2022-07-01T13:06:52;100823.22;;;19.92;50.51
71109;BME280;59614;51.012;-1.648;2022-07-01T13:09:18;100827.31;;;20.36;48.95
71109;BME280;59614;51.012;-1.648;2022-07-01T13:11:44;100829.75;;;19.48;49.72
71109;BME280;59614;51.012;-1.648;2022-07-01T13:14:09;100826.13;;;18.90;50.87